Flight Track Log - Related Links

Times and Time Zones

All times are in EDT time to prevent confusion due to time zone crossing. See the UAL4274 flight status page for this flight to view local times or setup timezone preferences in your user account.

Time Position Orientation Groundspeed Altitude Reporting Facility
EDT Latitude Longitude Course Direction KTS MPH feet Rate Location/Type
Sat 10:30:18 AM 29.9775 -95.3103 334° Northwest 127 146 600  Level Houston Center
Sat 10:31:07 AM 30.0022 -95.2808 46° Northeast 193 222 2,100 1,556 Climbing Houston Center
Sat 10:31:39 AM 30.0286 -95.2833 355° North 247 284 2,700 2,106 Climbing Houston Center
Sat 10:32:41 AM 30.0933 -95.3192 334° Northwest 258 297 5,400 3,145 Climbing Houston Center
Sat 10:33:43 AM 30.1669 -95.3753 327° Northwest 265 305 9,200 2,226 Climbing Houston Center
Sat 10:34:00 AM 30.3543 -95.5524 334° Northwest  Level FlightAware Approximate
Sat 10:34:45 AM 30.2319 -95.4242 327° Northwest 277 319 10,000  Level Houston Center
Sat 10:35:00 AM 30.4482 -95.6045 334° Northwest  Level FlightAware Approximate
Sat 10:35:47 AM 30.3128 -95.4844 327° Northwest 339 390 11,000  Level Houston Center
Sat 10:36:49 AM 30.3967 -95.5478 327° Northwest 358 412 12,500 1,548 Climbing Houston Center
Sat 10:37:51 AM 30.4794 -95.6089 328° Northwest 356 410 14,200 1,645 Climbing Houston Center
Sat 10:38:53 AM 30.5628 -95.6694 328° Northwest 354 407 15,900 1,694 Climbing Houston Center
Sat 10:39:55 AM 30.6700 -95.7231 337° Northwest 351 404 17,700 1,597 Climbing Houston Center
Sat 10:40:57 AM 30.7467 -95.7642 335° Northwest 348 400 19,200 1,707 Climbing Houston Center
Sat 10:41:58 AM 30.8531 -95.8214 335° Northwest 349 402 21,200 1,805 Climbing Houston Center
Sat 10:43:00 AM 30.9422 -95.8686 336° Northwest 350 403 22,900 1,597 Climbing Houston Center
Sat 10:44:02 AM 31.0308 -95.9161 335° Northwest 349 402 24,500 1,500 Climbing Houston Center
Sat 10:45:04 AM 31.1189 -95.9636 335° Northwest 348 400 26,000 1,452 Climbing Houston Center
Sat 10:46:06 AM 31.2108 -96.0003 341° North 348 400 27,500 1,366 Climbing Houston Center
Sat 10:47:07 AM 31.3031 -96.0361 342° North 348 400 28,800 1,122 Climbing Houston Center
Sat 10:48:09 AM 31.3947 -96.0717 342° North 346 398 29,800 563 Climbing Houston Center
Sat 10:49:15 AM 31.5053 -96.1122 343° North 354 407 30,000 95 Climbing Fort Worth Center
Sat 10:50:15 AM 31.6100 -96.1547 341° North 380 437 30,000  Level Fort Worth Center
Sat 10:51:15 AM 31.7169 -96.1997 340° North 396 456 30,000  Level Fort Worth Center
Sat 10:52:15 AM 31.8383 -96.2469 342° North 409 471 30,000  Level Fort Worth Center
Sat 10:53:15 AM 31.9472 -96.2872 343° North 409 471 30,000  Level Fort Worth Center
Sat 10:54:15 AM 32.0564 -96.3325 341° North 409 471 30,000  Level Fort Worth Center
Sat 10:55:15 AM 32.1653 -96.3728 343° North 409 471 30,000  Level Fort Worth Center
Sat 10:56:15 AM 32.2761 -96.3986 349° North 409 471 30,000  Level Fort Worth Center
Sat 10:57:15 AM 32.3953 -96.4119 355° North 415 478 30,000  Level Fort Worth Center
Sat 10:58:15 AM 32.5058 -96.4256 354° North 415 478 30,000  Level Fort Worth Center
Sat 10:59:15 AM 32.6250 -96.4439 353° North 415 478 30,000  Level Fort Worth Center
Sat 11:00:15 AM 32.7422 -96.4600 353° North 420 483 30,000  Level Fort Worth Center
Sat 11:01:15 AM 32.8550 -96.4711 355° North 420 483 30,000  Level Fort Worth Center
Sat 11:02:15 AM 32.9742 -96.4897 353° North 425 489 30,000  Level Fort Worth Center
Sat 11:03:15 AM 33.0869 -96.5036 354° North 425 489 30,000  Level Fort Worth Center
Sat 11:04:15 AM 33.2039 -96.5222 352° North 425 489 30,000  Level Fort Worth Center
Sat 11:05:15 AM 33.3208 -96.5383 353° North 425 489 30,000  Level Fort Worth Center
Sat 11:06:15 AM 33.4253 -96.5497 355° North 425 489 30,000  Level Fort Worth Center
Sat 11:07:15 AM 33.5422 -96.5661 353° North 425 489 30,000  Level Fort Worth Center
Sat 11:08:15 AM 33.6572 -96.5850 352° North 425 489 30,000  Level Fort Worth Center
Sat 11:09:15 AM 33.7764 -96.6014 353° North 425 489 30,000  Level Fort Worth Center
Sat 11:10:15 AM 33.8911 -96.6153 354° North 420 483 30,000  Level Fort Worth Center
Sat 11:11:15 AM 34.0103 -96.6342 353° North 420 483 30,000  Level Fort Worth Center
Sat 11:12:15 AM 34.1356 -96.6531 353° North 418 481 30,000  Level Fort Worth Center
Sat 11:13:15 AM 34.2525 -96.6697 353° North 418 481 30,000  Level Fort Worth Center
Sat 11:14:15 AM 34.3736 -96.6864 354° North 424 488 30,000  Level Fort Worth Center
Sat 11:15:15 AM 34.4928 -96.7031 353° North 424 488 30,000  Level Fort Worth Center
Sat 11:16:15 AM 34.6097 -96.7172 354° North 424 488 30,000  Level Fort Worth Center
Sat 11:17:15 AM 34.7286 -96.7339 353° North 424 488 30,000  Level Fort Worth Center
Sat 11:18:15 AM 34.8475 -96.7506 353° North 429 494 30,000  Level Fort Worth Center
Sat 11:19:15 AM 34.9644 -96.7675 353° North 429 494 30,000  Level Fort Worth Center
Sat 11:21:32 AM 35.2203 -96.8011 354° North 427 491 30,000  Level Kansas City Center
Sat 11:22:33 AM 35.3375 -96.8186 353° North 427 491 30,000  Level Kansas City Center
Sat 11:23:37 AM 35.4778 -96.8383 353° North 427 491 30,000  Level Kansas City Center
Sat 11:24:38 AM 35.5947 -96.8547 353° North 427 491 30,000 -295 Level Kansas City Center
Sat 11:25:39 AM 35.7103 -96.8725 353° North 425 489 29,400 -1,623 Descending Kansas City Center
Sat 11:26:40 AM 35.8261 -96.8892 353° North 421 484 26,700 -2,419 Descending Kansas City Center
Sat 11:27:43 AM 35.9453 -96.9058 354° North 428 493 24,400 -1,776 Descending Kansas City Center
Sat 11:28:45 AM 36.0617 -96.9247 353° North 427 491 23,000 -1,220 Descending Kansas City Center
Sat 11:29:46 AM 36.2006 -96.9439 354° North 420 483 21,900 -960 Descending Kansas City Center
Sat 11:30:50 AM 36.3186 -96.9597 354° North 425 489 21,000 -864 Descending Kansas City Center
Sat 11:31:51 AM 36.4333 -96.9772 353° North 421 484 20,100 -984 Descending Kansas City Center
Sat 11:32:52 AM 36.5469 -96.9936 353° North 413 475 19,000 -1,328 Descending Kansas City Center
Sat 11:33:53 AM 36.6711 -97.0131 353° North 405 466 17,400 -1,500 Descending Kansas City Center
Sat 11:34:56 AM 36.7778 -97.0292 353° North 389 448 15,900 -1,403 Descending Kansas City Center
Sat 11:35:57 AM 36.8806 -97.0444 353° North 396 456 14,500 -1,403 Descending Kansas City Center
Sat 11:37:00 AM 36.9875 -97.0589 354° North 394 453 13,000 -1,596 Descending Kansas City Center
Sat 11:37:46 AM 37.0778 -97.0758 351° North 379 436 11,600 -1,869 Descending Kansas City Center
Sat 11:38:01 AM 37.1119 -97.0778 357° North 380 437 11,100 -1,500 Descending Kansas City Center
Sat 11:38:46 AM 37.1781 -97.0889 352° North 366 421 10,100 -1,031 Descending Kansas City Center
Sat 11:39:05 AM 37.2106 -97.0925 355° North 366 421 10,000 -290 Descending Kansas City Center
Sat 11:39:48 AM 37.2686 -97.1114 345° North 275 316 9,800 -689 Descending Kansas City Center
Sat 11:40:06 AM 37.2861 -97.1183 342° North 302 348 9,300 -2,000 Descending Kansas City Center
Sat 11:40:48 AM 37.3361 -97.1561 329° Northwest 264 304 7,800 -2,000 Descending Kansas City Center
Sat 11:41:06 AM 37.3536 -97.1678 332° Northwest 281 323 7,300 -1,672 Descending Kansas City Center
Sat 11:41:49 AM 37.4042 -97.2061 329° Northwest 288 331 6,100 -1,219 Descending Kansas City Center
Sat 11:42:10 AM 37.4219 -97.2153 338° Northwest 283 326 6,000 -100 Descending Kansas City Center
Sat 11:42:49 AM 37.4739 -97.2506 332° Northwest 279 321 6,000  Level Kansas City Center
Sat 11:43:11 AM 37.4914 -97.2617 333° Northwest 282 325 6,000 -787 Level Kansas City Center
Sat 11:43:50 AM 37.5522 -97.2567 North 300 345 5,200 -1,125 Descending Kansas City Center
Sat 11:44:15 AM 37.5728 -97.2556 North 294 338 4,800 -1,241 Descending Kansas City Center
Sat 11:44:48 AM 37.6297 -97.2550 360° North 282 325 4,000 -787 Descending Kansas City Center
Sat 11:45:16 AM 37.6647 -97.2581 356° North 285 328 4,000  Level Kansas City Center
Sat 11:45:49 AM 37.7122 -97.2606 358° North 275 316 4,000 -100 Level Kansas City Center
Sat 11:46:16 AM 37.7419 -97.2611 359° North 279 321 3,900 -590 Descending Kansas City Center
Sat 11:46:50 AM 37.7839 -97.2839 337° Northwest 273 314 3,400 -750 Descending Kansas City Center
Sat 11:47:20 AM 37.7936 -97.3150 292° West 273 314 3,100 -400 Descending Kansas City Center
Sat 11:47:50 AM 37.7858 -97.3656 259° West 243 280 3,000 -100 Descending Kansas City Center
Sat 11:48:20 AM 37.7694 -97.3831 220° Southwest 243 280 3,000  Level Kansas City Center

Login

Don't have an account? Register now (free) for customized features, flight alerts, and more!